Culleoka, Tennessee
Current Conditions -  °F | °C
As of 7:35 AM on Sunday 23 Nov 2014 (Local Time) from KSYI Reporting Station
Overcast Overcast  
Wind Chill: 55°   Ceiling: 8000
Heat Index: 55°   Visibility: 10mi
Dew Point: 52°   Wind: 15mph
Humidity: 88%   Direction: 150°SSE
Pressure: 29.89"   Gusts: NA
Location:  35.48°N, 86.98°W
Report Text: KSYI 231335Z AUTO 15013KT 10SM FEW020 BKN080 OVC110 13/11 A2989 RMK
Loading
Personal Weather Stations






























Interactive Weather Map New forecast layout! Learn more

10-Day Weather Forecast

Advertisements
Track Severe Weather on mobile